sensor_id;sensor_type;location;lat;lon;timestamp;pressure;altitude;pressure_sealevel;temperature;humidity
71964;BME280;59834;52.124;5.422;2022-12-29T00:00:13;99970.03;;;9.96;100.00
71964;BME280;59834;52.124;5.422;2022-12-29T00:02:47;99968.00;;;9.99;100.00
71964;BME280;59834;52.124;5.422;2022-12-29T00:05:14;99951.88;;;10.05;99.67
71964;BME280;59834;52.124;5.422;2022-12-29T00:07:41;99941.53;;;10.04;99.68
71964;BME280;59834;52.124;5.422;2022-12-29T00:10:07;99941.09;;;10.10;99.29
71964;BME280;59834;52.124;5.422;2022-12-29T00:12:34;99945.50;;;10.09;98.75
71964;BME280;59834;52.124;5.422;2022-12-29T00:15:19;99933.47;;;10.07;99.06
71964;BME280;59834;52.124;5.422;2022-12-29T00:18:05;99930.63;;;10.10;98.93
71964;BME280;59834;52.124;5.422;2022-12-29T00:20:36;99934.16;;;10.09;98.52
71964;BME280;59834;52.124;5.422;2022-12-29T00:23:21;99927.78;;;10.13;98.36
71964;BME280;59834;52.124;5.422;2022-12-29T00:26:15;99904.25;;;10.13;97.83
71964;BME280;59834;52.124;5.422;2022-12-29T00:29:01;99918.16;;;10.13;98.36
71964;BME280;59834;52.124;5.422;2022-12-29T00:31:46;99911.97;;;10.14;98.27
71964;BME280;59834;52.124;5.422;2022-12-29T00:34:31;99914.72;;;10.13;97.69
71964;BME280;59834;52.124;5.422;2022-12-29T00:37:16;99909.25;;;10.16;97.60
71964;BME280;59834;52.124;5.422;2022-12-29T00:39:43;99907.34;;;10.18;97.35
71964;BME280;59834;52.124;5.422;2022-12-29T00:42:28;99902.34;;;10.15;98.06
71964;BME280;59834;52.124;5.422;2022-12-29T00:45:13;99910.06;;;10.17;97.87
71964;BME280;59834;52.124;5.422;2022-12-29T00:47:40;99905.44;;;10.20;96.63
71964;BME280;59834;52.124;5.422;2022-12-29T00:50:06;99883.44;;;10.23;96.27
71964;BME280;59834;52.124;5.422;2022-12-29T00:52:33;99884.28;;;10.23;96.43
71964;BME280;59834;52.124;5.422;2022-12-29T00:54:59;99881.19;;;10.18;96.82
71964;BME280;59834;52.124;5.422;2022-12-29T00:57:26;99871.44;;;10.20;96.74
71964;BME280;59834;52.124;5.422;2022-12-29T00:59:52;99870.72;;;10.18;97.16
71964;BME280;59834;52.124;5.422;2022-12-29T01:02:19;99862.88;;;10.18;96.13
71964;BME280;59834;52.124;5.422;2022-12-29T01:04:46;99864.53;;;10.19;97.11
71964;BME280;59834;52.124;5.422;2022-12-29T01:07:13;99856.22;;;10.14;97.58
71964;BME280;59834;52.124;5.422;2022-12-29T01:09:40;99858.34;;;10.09;97.78
71964;BME280;59834;52.124;5.422;2022-12-29T01:12:25;99851.47;;;10.08;98.19
71964;BME280;59834;52.124;5.422;2022-12-29T01:15:09;99849.69;;;10.08;97.65
71964;BME280;59834;52.124;5.422;2022-12-29T01:17:36;99836.75;;;10.07;98.33
71964;BME280;59834;52.124;5.422;2022-12-29T01:20:03;99845.78;;;10.03;99.18
71964;BME280;59834;52.124;5.422;2022-12-29T01:22:30;99840.41;;;9.93;100.00
71964;BME280;59834;52.124;5.422;2022-12-29T01:24:56;99847.91;;;9.86;100.00
71964;BME280;59834;52.124;5.422;2022-12-29T01:27:23;99836.56;;;9.75;100.00
71964;BME280;59834;52.124;5.422;2022-12-29T01:29:49;99844.78;;;9.70;100.00
71964;BME280;59834;52.124;5.422;2022-12-29T01:32:16;99819.09;;;9.64;100.00
71964;BME280;59834;52.124;5.422;2022-12-29T01:34:43;99849.13;;;9.58;100.00
71964;BME280;59834;52.124;5.422;2022-12-29T01:37:10;99830.47;;;9.52;100.00
71964;BME280;59834;52.124;5.422;2022-12-29T01:39:37;99821.19;;;9.48;100.00
71964;BME280;59834;52.124;5.422;2022-12-29T01:42:03;99833.31;;;9.49;100.00
71964;BME280;59834;52.124;5.422;2022-12-29T01:47:21;99841.50;;;9.44;100.00
71964;BME280;59834;52.124;5.422;2022-12-29T01:49:59;99847.78;;;9.41;100.00
71964;BME280;59834;52.124;5.422;2022-12-29T01:52:29;99847.06;;;9.39;100.00
71964;BME280;59834;52.124;5.422;2022-12-29T01:54:59;99839.94;;;9.41;100.00
71964;BME280;59834;52.124;5.422;2022-12-29T01:57:31;99835.31;;;9.45;100.00
71964;BME280;59834;52.124;5.422;2022-12-29T02:00:07;99850.66;;;9.50;100.00
71964;BME280;59834;52.124;5.422;2022-12-29T02:02:35;99856.59;;;9.52;100.00
71964;BME280;59834;52.124;5.422;2022-12-29T02:05:10;99856.25;;;9.56;100.00
71964;BME280;59834;52.124;5.422;2022-12-29T02:07:38;99854.72;;;9.54;100.00
71964;BME280;59834;52.124;5.422;2022-12-29T02:10:05;99851.88;;;9.57;100.00
71964;BME280;59834;52.124;5.422;2022-12-29T02:12:33;99853.44;;;9.59;100.00
71964;BME280;59834;52.124;5.422;2022-12-29T02:15:00;99846.66;;;9.57;100.00
71964;BME280;59834;52.124;5.422;2022-12-29T02:17:45;99858.53;;;9.61;100.00
71964;BME280;59834;52.124;5.422;2022-12-29T02:26:23;99860.19;;;9.62;100.00
71964;BME280;59834;52.124;5.422;2022-12-29T02:29:06;99859.47;;;9.60;100.00
71964;BME280;59834;52.124;5.422;2022-12-29T02:34:49;99866.59;;;9.58;100.00
71964;BME280;59834;52.124;5.422;2022-12-29T02:37:24;99861.72;;;9.53;100.00
71964;BME280;59834;52.124;5.422;2022-12-29T02:40:01;99869.56;;;9.53;100.00
71964;BME280;59834;52.124;5.422;2022-12-29T02:45:26;99852.94;;;9.54;100.00
71964;BME280;59834;52.124;5.422;2022-12-29T02:48:28;99844.84;;;9.57;100.00
71964;BME280;59834;52.124;5.422;2022-12-29T02:51:03;99845.91;;;9.55;100.00
71964;BME280;59834;52.124;5.422;2022-12-29T02:53:32;99848.75;;;9.52;100.00
71964;BME280;59834;52.124;5.422;2022-12-29T02:56:19;99841.06;;;9.61;100.00
71964;BME280;59834;52.124;5.422;2022-12-29T02:58:46;99845.22;;;9.64;100.00
71964;BME280;59834;52.124;5.422;2022-12-29T03:07:09;99848.75;;;9.52;100.00
71964;BME280;59834;52.124;5.422;2022-12-29T03:10:04;99856.00;;;9.48;100.00
71964;BME280;59834;52.124;5.422;2022-12-29T03:12:54;99861.00;;;9.51;100.00
71964;BME280;59834;52.124;5.422;2022-12-29T03:15:53;99842.94;;;9.48;100.00
71964;BME280;59834;52.124;5.422;2022-12-29T03:21:20;99829.03;;;9.36;100.00
71964;BME280;59834;52.124;5.422;2022-12-29T03:24:10;99851.34;;;9.40;100.00
71964;BME280;59834;52.124;5.422;2022-12-29T03:26:39;99849.47;;;9.42;100.00
71964;BME280;59834;52.124;5.422;2022-12-29T03:29:07;99848.28;;;9.47;100.00
71964;BME280;59834;52.124;5.422;2022-12-29T03:31:36;99830.22;;;9.43;100.00
71964;BME280;59834;52.124;5.422;2022-12-29T03:34:05;99829.25;;;9.44;100.00
71964;BME280;59834;52.124;5.422;2022-12-29T03:36:44;99824.72;;;9.35;100.00
71964;BME280;59834;52.124;5.422;2022-12-29T03:39:13;99828.97;;;9.25;100.00
71964;BME280;59834;52.124;5.422;2022-12-29T03:41:42;99833.94;;;9.17;100.00
71964;BME280;59834;52.124;5.422;2022-12-29T03:44:12;99845.56;;;9.13;100.00
71964;BME280;59834;52.124;5.422;2022-12-29T03:46:40;99837.81;;;9.11;100.00
71964;BME280;59834;52.124;5.422;2022-12-29T03:49:07;99834.06;;;9.15;100.00
71964;BME280;59834;52.124;5.422;2022-12-29T03:51:35;99831.53;;;9.14;100.00
71964;BME280;59834;52.124;5.422;2022-12-29T03:54:02;99830.72;;;9.13;100.00
71964;BME280;59834;52.124;5.422;2022-12-29T03:56:29;99832.72;;;9.10;100.00
71964;BME280;59834;52.124;5.422;2022-12-29T03:58:55;99845.16;;;9.06;100.00
71964;BME280;59834;52.124;5.422;2022-12-29T04:01:22;99836.72;;;9.03;100.00
71964;BME280;59834;52.124;5.422;2022-12-29T04:03:49;99833.16;;;9.04;100.00
71964;BME280;59834;52.124;5.422;2022-12-29T04:06:16;99825.56;;;9.01;100.00
71964;BME280;59834;52.124;5.422;2022-12-29T04:08:43;99826.59;;;8.98;100.00
71964;BME280;59834;52.124;5.422;2022-12-29T04:11:09;99824.13;;;8.96;100.00
71964;BME280;59834;52.124;5.422;2022-12-29T04:13:36;99829.34;;;8.96;100.00
71964;BME280;59834;52.124;5.422;2022-12-29T04:16:02;99819.38;;;9.02;100.00
71964;BME280;59834;52.124;5.422;2022-12-29T04:18:29;99828.56;;;9.07;100.00
71964;BME280;59834;52.124;5.422;2022-12-29T04:20:55;99840.78;;;9.07;100.00
71964;BME280;59834;52.124;5.422;2022-12-29T04:23:32;99842.81;;;9.14;100.00
71964;BME280;59834;52.124;5.422;2022-12-29T04:25:59;99856.59;;;9.16;99.82
71964;BME280;59834;52.124;5.422;2022-12-29T04:28:25;99865.75;;;9.22;98.30
71964;BME280;59834;52.124;5.422;2022-12-29T04:30:53;99865.75;;;9.22;98.38
71964;BME280;59834;52.124;5.422;2022-12-29T04:33:20;99861.81;;;9.16;98.46
71964;BME280;59834;52.124;5.422;2022-12-29T04:35:47;99856.25;;;9.21;97.90
71964;BME280;59834;52.124;5.422;2022-12-29T04:38:14;99861.47;;;9.21;96.61
71964;BME280;59834;52.124;5.422;2022-12-29T04:40:43;99859.91;;;9.18;96.37
71964;BME280;59834;52.124;5.422;2022-12-29T04:43:11;99871.09;;;9.20;96.25
71964;BME280;59834;52.124;5.422;2022-12-29T04:45:38;99874.22;;;9.26;94.33
71964;BME280;59834;52.124;5.422;2022-12-29T04:48:05;99882.97;;;9.25;94.86
71964;BME280;59834;52.124;5.422;2022-12-29T04:50:32;99876.19;;;9.22;94.60
71964;BME280;59834;52.124;5.422;2022-12-29T04:52:58;99882.59;;;9.18;94.40
71964;BME280;59834;52.124;5.422;2022-12-29T04:55:25;99878.53;;;9.14;94.57
71964;BME280;59834;52.124;5.422;2022-12-29T04:57:51;99886.28;;;9.15;94.79
71964;BME280;59834;52.124;5.422;2022-12-29T05:00:18;99880.41;;;9.12;93.89
71964;BME280;59834;52.124;5.422;2022-12-29T05:02:44;99874.25;;;9.13;94.28
71964;BME280;59834;52.124;5.422;2022-12-29T05:05:11;99882.72;;;9.16;93.18
71964;BME280;59834;52.124;5.422;2022-12-29T05:07:40;99895.63;;;9.18;92.74
71964;BME280;59834;52.124;5.422;2022-12-29T05:10:07;99903.47;;;9.18;93.75
71964;BME280;59834;52.124;5.422;2022-12-29T05:12:35;99907.25;;;9.14;93.24
71964;BME280;59834;52.124;5.422;2022-12-29T05:15:04;99896.06;;;9.12;94.03
71964;BME280;59834;52.124;5.422;2022-12-29T05:17:31;99905.28;;;9.05;94.22
71964;BME280;59834;52.124;5.422;2022-12-29T05:19:58;99887.75;;;9.07;93.33
71964;BME280;59834;52.124;5.422;2022-12-29T05:22:25;99894.41;;;9.11;92.59
71964;BME280;59834;52.124;5.422;2022-12-29T05:24:51;99895.69;;;9.05;91.84
71964;BME280;59834;52.124;5.422;2022-12-29T05:27:18;99911.59;;;9.02;93.49
71964;BME280;59834;52.124;5.422;2022-12-29T05:29:45;99903.84;;;9.01;92.67
71964;BME280;59834;52.124;5.422;2022-12-29T05:32:11;99909.69;;;9.04;92.26
71964;BME280;59834;52.124;5.422;2022-12-29T05:34:38;99913.25;;;9.03;93.01
71964;BME280;59834;52.124;5.422;2022-12-29T05:37:04;99911.69;;;9.01;93.01
71964;BME280;59834;52.124;5.422;2022-12-29T05:39:31;99903.84;;;9.01;92.56
71964;BME280;59834;52.124;5.422;2022-12-29T05:41:58;99901.38;;;8.99;92.35
71964;BME280;59834;52.124;5.422;2022-12-29T05:44:24;99907.50;;;8.98;92.51
71964;BME280;59834;52.124;5.422;2022-12-29T05:46:51;99903.13;;;8.98;92.12
71964;BME280;59834;52.124;5.422;2022-12-29T05:49:17;99892.59;;;9.00;92.30
71964;BME280;59834;52.124;5.422;2022-12-29T05:51:45;99897.81;;;9.00;92.10
71964;BME280;59834;52.124;5.422;2022-12-29T05:54:13;99903.84;;;9.01;91.95
71964;BME280;59834;52.124;5.422;2022-12-29T05:56:39;99908.84;;;9.04;91.71
71964;BME280;59834;52.124;5.422;2022-12-29T05:59:06;99920.13;;;9.04;90.77
71964;BME280;59834;52.124;5.422;2022-12-29T06:01:33;99915.03;;;9.03;91.72
71964;BME280;59834;52.124;5.422;2022-12-29T06:04:00;99910.72;;;9.02;90.72
71964;BME280;59834;52.124;5.422;2022-12-29T06:06:27;99933.31;;;9.03;91.05
71964;BME280;59834;52.124;5.422;2022-12-29T06:08:54;99934.00;;;9.05;90.29
71964;BME280;59834;52.124;5.422;2022-12-29T06:11:20;99941.63;;;9.08;90.10
71964;BME280;59834;52.124;5.422;2022-12-29T06:13:47;99945.19;;;9.07;91.29
71964;BME280;59834;52.124;5.422;2022-12-29T06:16:13;99943.00;;;9.01;90.50
71964;BME280;59834;52.124;5.422;2022-12-29T06:18:40;99941.44;;;8.98;91.36
71964;BME280;59834;52.124;5.422;2022-12-29T06:21:06;99947.00;;;8.93;92.03
71964;BME280;59834;52.124;5.422;2022-12-29T06:23:33;99941.38;;;8.87;91.63
71964;BME280;59834;52.124;5.422;2022-12-29T06:25:59;99939.59;;;8.87;91.10
71964;BME280;59834;52.124;5.422;2022-12-29T06:28:26;99950.16;;;8.86;91.73
71964;BME280;59834;52.124;5.422;2022-12-29T06:30:52;99944.31;;;8.82;92.44
71964;BME280;59834;52.124;5.422;2022-12-29T06:33:19;99947.44;;;8.74;93.62
71964;BME280;59834;52.124;5.422;2022-12-29T06:35:47;99958.22;;;8.70;93.71
71964;BME280;59834;52.124;5.422;2022-12-29T06:38:13;99963.78;;;8.65;94.43
71964;BME280;59834;52.124;5.422;2022-12-29T06:40:42;99960.75;;;8.59;94.76
71964;BME280;59834;52.124;5.422;2022-12-29T06:43:10;99973.25;;;8.54;95.70
71964;BME280;59834;52.124;5.422;2022-12-29T06:45:40;99965.44;;;8.54;95.54
71964;BME280;59834;52.124;5.422;2022-12-29T06:48:07;99962.50;;;8.58;94.26
71964;BME280;59834;52.124;5.422;2022-12-29T06:50:34;99969.19;;;8.62;94.42
71964;BME280;59834;52.124;5.422;2022-12-29T06:53:04;99965.00;;;8.60;93.90
71964;BME280;59834;52.124;5.422;2022-12-29T06:55:31;99965.97;;;8.59;93.13
71964;BME280;59834;52.124;5.422;2022-12-29T06:57:58;99961.47;;;8.61;93.26
71964;BME280;59834;52.124;5.422;2022-12-29T07:00:26;99956.78;;;8.66;92.12
71964;BME280;59834;52.124;5.422;2022-12-29T07:02:54;99962.06;;;8.77;89.31
71964;BME280;59834;52.124;5.422;2022-12-29T07:05:21;99954.22;;;8.77;89.71
71964;BME280;59834;52.124;5.422;2022-12-29T07:07:48;99972.50;;;8.77;89.47
71964;BME280;59834;52.124;5.422;2022-12-29T07:10:15;99985.13;;;8.70;89.29
71964;BME280;59834;52.124;5.422;2022-12-29T07:12:42;99998.72;;;8.63;90.27
71964;BME280;59834;52.124;5.422;2022-12-29T07:15:09;99971.28;;;8.44;92.66
71964;BME280;59834;52.124;5.422;2022-12-29T07:17:39;99982.09;;;8.25;93.89
71964;BME280;59834;52.124;5.422;2022-12-29T07:20:07;99976.66;;;8.16;95.44
71964;BME280;59834;52.124;5.422;2022-12-29T07:22:34;99983.22;;;8.09;95.95
71964;BME280;59834;52.124;5.422;2022-12-29T07:25:01;99981.31;;;7.98;96.70
71964;BME280;59834;52.124;5.422;2022-12-29T07:27:29;99984.44;;;7.90;97.45
71964;BME280;59834;52.124;5.422;2022-12-29T07:29:55;99987.56;;;7.83;98.22
71964;BME280;59834;52.124;5.422;2022-12-29T07:32:23;99988.25;;;7.72;99.05
71964;BME280;59834;52.124;5.422;2022-12-29T07:34:58;99994.69;;;7.66;99.79
71964;BME280;59834;52.124;5.422;2022-12-29T07:37:25;100000.22;;;7.62;100.00
71964;BME280;59834;52.124;5.422;2022-12-29T07:39:51;100013.31;;;7.60;100.00
71964;BME280;59834;52.124;5.422;2022-12-29T07:42:18;100008.94;;;7.61;100.00
71964;BME280;59834;52.124;5.422;2022-12-29T07:44:45;100014.78;;;7.64;100.00
71964;BME280;59834;52.124;5.422;2022-12-29T07:47:12;99999.59;;;7.71;99.94
71964;BME280;59834;52.124;5.422;2022-12-29T07:49:40;100004.72;;;7.72;100.00
71964;BME280;59834;52.124;5.422;2022-12-29T07:52:08;99999.19;;;7.77;100.00
71964;BME280;59834;52.124;5.422;2022-12-29T07:54:34;100002.34;;;7.82;99.90
71964;BME280;59834;52.124;5.422;2022-12-29T07:57:02;100000.19;;;7.89;99.27
71964;BME280;59834;52.124;5.422;2022-12-29T07:59:28;100002.16;;;7.98;98.22
71964;BME280;59834;52.124;5.422;2022-12-29T08:01:55;100019.91;;;8.06;97.70
71964;BME280;59834;52.124;5.422;2022-12-29T08:04:25;99998.88;;;8.09;97.71
71964;BME280;59834;52.124;5.422;2022-12-29T08:06:55;100008.22;;;8.11;97.51
71964;BME280;59834;52.124;5.422;2022-12-29T08:09:23;99990.72;;;8.13;96.91
71964;BME280;59834;52.124;5.422;2022-12-29T08:11:51;99984.09;;;8.22;95.06
71964;BME280;59834;52.124;5.422;2022-12-29T08:14:32;99982.81;;;8.27;95.17
71964;BME280;59834;52.124;5.422;2022-12-29T08:16:58;99977.09;;;8.35;94.19
71964;BME280;59834;52.124;5.422;2022-12-29T08:19:25;99973.88;;;8.44;92.76
71964;BME280;59834;52.124;5.422;2022-12-29T08:21:52;99971.47;;;8.54;91.63
71964;BME280;59834;52.124;5.422;2022-12-29T08:24:19;99982.94;;;8.52;91.53
71964;BME280;59834;52.124;5.422;2022-12-29T08:26:46;99986.72;;;8.47;91.83
71964;BME280;59834;52.124;5.422;2022-12-29T08:29:12;99983.28;;;8.47;91.83
71964;BME280;59834;52.124;5.422;2022-12-29T08:31:39;99992.47;;;8.53;90.44
71964;BME280;59834;52.124;5.422;2022-12-29T08:34:07;99991.84;;;8.62;88.20
71964;BME280;59834;52.124;5.422;2022-12-29T08:36:34;99977.31;;;8.70;88.06
71964;BME280;59834;52.124;5.422;2022-12-29T08:39:00;99987.94;;;8.67;87.87
71964;BME280;59834;52.124;5.422;2022-12-29T08:41:27;99983.34;;;8.71;88.03
71964;BME280;59834;52.124;5.422;2022-12-29T08:43:53;99990.88;;;8.76;87.94
71964;BME280;59834;52.124;5.422;2022-12-29T08:46:20;99996.94;;;8.76;87.26
71964;BME280;59834;52.124;5.422;2022-12-29T08:48:47;99995.25;;;8.75;87.60
71964;BME280;59834;52.124;5.422;2022-12-29T08:51:14;99994.13;;;8.79;86.16
71964;BME280;59834;52.124;5.422;2022-12-29T08:53:48;100009.84;;;8.78;87.45
71964;BME280;59834;52.124;5.422;2022-12-29T08:56:15;100010.19;;;8.73;88.43
71964;BME280;59834;52.124;5.422;2022-12-29T08:58:42;100002.91;;;8.65;89.87
71964;BME280;59834;52.124;5.422;2022-12-29T09:01:09;100007.50;;;8.62;89.46
71964;BME280;59834;52.124;5.422;2022-12-29T09:03:36;99996.09;;;8.63;90.16
71964;BME280;59834;52.124;5.422;2022-12-29T09:06:23;100000.69;;;8.72;90.00
71964;BME280;59834;52.124;5.422;2022-12-29T09:08:49;100015.19;;;8.76;89.15
71964;BME280;59834;52.124;5.422;2022-12-29T09:11:19;100020.50;;;8.74;89.97
71964;BME280;59834;52.124;5.422;2022-12-29T09:13:48;100013.75;;;8.72;90.73
71964;BME280;59834;52.124;5.422;2022-12-29T09:16:15;100014.38;;;8.76;89.70
71964;BME280;59834;52.124;5.422;2022-12-29T09:18:42;100013.50;;;8.75;90.05
71964;BME280;59834;52.124;5.422;2022-12-29T09:21:10;100017.91;;;8.74;90.25
71964;BME280;59834;52.124;5.422;2022-12-29T09:23:37;100027.50;;;8.74;90.78
71964;BME280;59834;52.124;5.422;2022-12-29T09:26:04;100019.78;;;8.72;91.31
71964;BME280;59834;52.124;5.422;2022-12-29T09:28:41;100036.69;;;8.67;92.01
71964;BME280;59834;52.124;5.422;2022-12-29T09:31:35;100042.84;;;8.66;92.77
71964;BME280;59834;52.124;5.422;2022-12-29T09:34:01;100052.97;;;8.58;94.35
71964;BME280;59834;52.124;5.422;2022-12-29T09:36:29;100052.03;;;8.46;95.89
71964;BME280;59834;52.124;5.422;2022-12-29T09:38:56;100062.66;;;8.43;95.69
71964;BME280;59834;52.124;5.422;2022-12-29T09:41:31;100066.22;;;8.42;96.04
71964;BME280;59834;52.124;5.422;2022-12-29T09:44:08;100071.88;;;8.34;96.84
71964;BME280;59834;52.124;5.422;2022-12-29T09:46:48;100080.34;;;8.25;98.86
71964;BME280;59834;52.124;5.422;2022-12-29T09:49:38;100085.41;;;8.14;100.00
71964;BME280;59834;52.124;5.422;2022-12-29T09:56:05;100089.25;;;8.08;100.00
71964;BME280;59834;52.124;5.422;2022-12-29T09:59:00;100086.53;;;8.10;100.00
71964;BME280;59834;52.124;5.422;2022-12-29T10:01:41;100110.75;;;8.12;100.00
71964;BME280;59834;52.124;5.422;2022-12-29T10:04:12;100096.66;;;8.14;100.00
71964;BME280;59834;52.124;5.422;2022-12-29T10:16:10;100120.75;;;8.18;100.00
71964;BME280;59834;52.124;5.422;2022-12-29T10:18:52;100114.44;;;8.22;100.00
71964;BME280;59834;52.124;5.422;2022-12-29T10:22:04;100129.22;;;8.21;100.00
71964;BME280;59834;52.124;5.422;2022-12-29T10:24:38;100137.88;;;8.22;100.00
71964;BME280;59834;52.124;5.422;2022-12-29T10:27:10;100136.75;;;8.26;100.00
71964;BME280;59834;52.124;5.422;2022-12-29T10:29:42;100146.97;;;8.29;100.00
71964;BME280;59834;52.124;5.422;2022-12-29T10:35:16;100156.66;;;8.27;100.00
71964;BME280;59834;52.124;5.422;2022-12-29T10:37:53;100161.34;;;8.22;100.00
71964;BME280;59834;52.124;5.422;2022-12-29T10:43:48;100176.06;;;8.23;100.00
71964;BME280;59834;52.124;5.422;2022-12-29T10:46:36;100160.41;;;8.23;100.00
71964;BME280;59834;52.124;5.422;2022-12-29T10:49:14;100170.09;;;8.21;100.00
71964;BME280;59834;52.124;5.422;2022-12-29T10:51:48;100185.53;;;8.24;100.00
71964;BME280;59834;52.124;5.422;2022-12-29T10:54:38;100192.03;;;8.31;100.00
71964;BME280;59834;52.124;5.422;2022-12-29T10:57:36;100206.94;;;8.29;100.00
71964;BME280;59834;52.124;5.422;2022-12-29T11:00:20;100203.72;;;8.25;100.00
71964;BME280;59834;52.124;5.422;2022-12-29T11:05:56;100225.59;;;8.23;100.00
71964;BME280;59834;52.124;5.422;2022-12-29T11:08:26;100220.25;;;8.24;100.00
71964;BME280;59834;52.124;5.422;2022-12-29T11:11:04;100228.72;;;8.28;100.00
71964;BME280;59834;52.124;5.422;2022-12-29T11:13:46;100237.22;;;8.32;100.00
71964;BME280;59834;52.124;5.422;2022-12-29T11:16:13;100237.84;;;8.35;100.00
71964;BME280;59834;52.124;5.422;2022-12-29T11:18:40;100229.00;;;8.38;100.00
71964;BME280;59834;52.124;5.422;2022-12-29T11:21:40;100245.22;;;8.43;100.00
71964;BME280;59834;52.124;5.422;2022-12-29T11:24:43;100243.56;;;8.55;100.00
71964;BME280;59834;52.124;5.422;2022-12-29T11:27:23;100254.16;;;8.66;100.00
71964;BME280;59834;52.124;5.422;2022-12-29T11:29:53;100252.63;;;8.76;100.00
71964;BME280;59834;52.124;5.422;2022-12-29T11:32:24;100252.44;;;8.79;100.00
71964;BME280;59834;52.124;5.422;2022-12-29T11:34:56;100260.53;;;8.74;100.00
71964;BME280;59834;52.124;5.422;2022-12-29T11:37:36;100255.84;;;8.67;100.00
71964;BME280;59834;52.124;5.422;2022-12-29T11:40:20;100268.03;;;8.66;100.00
71964;BME280;59834;52.124;5.422;2022-12-29T11:46:37;100270.16;;;8.47;100.00
71964;BME280;59834;52.124;5.422;2022-12-29T11:49:05;100273.06;;;8.42;100.00
71964;BME280;59834;52.124;5.422;2022-12-29T11:51:45;100278.72;;;8.49;100.00
71964;BME280;59834;52.124;5.422;2022-12-29T11:54:29;100277.09;;;8.61;100.00
71964;BME280;59834;52.124;5.422;2022-12-29T11:56:59;100274.59;;;8.59;99.31
71964;BME280;59834;52.124;5.422;2022-12-29T12:00:21;100281.88;;;8.54;98.86
71964;BME280;59834;52.124;5.422;2022-12-29T12:03:13;100287.00;;;8.56;99.73
71964;BME280;59834;52.124;5.422;2022-12-29T12:06:16;100285.31;;;8.55;98.50
71964;BME280;59834;52.124;5.422;2022-12-29T12:09:36;100294.06;;;8.54;97.95
71964;BME280;59834;52.124;5.422;2022-12-29T12:12:03;100287.28;;;8.51;99.34
71964;BME280;59834;52.124;5.422;2022-12-29T12:18:53;100296.44;;;8.44;100.00
71964;BME280;59834;52.124;5.422;2022-12-29T12:25:21;100308.97;;;8.52;100.00
71964;BME280;59834;52.124;5.422;2022-12-29T12:28:30;100297.44;;;8.56;100.00
71964;BME280;59834;52.124;5.422;2022-12-29T12:31:35;100295.09;;;8.65;100.00
71964;BME280;59834;52.124;5.422;2022-12-29T12:58:58;100324.66;;;9.06;94.56
71964;BME280;59834;52.124;5.422;2022-12-29T13:08:52;100327.97;;;9.08;94.59
71964;BME280;59834;52.124;5.422;2022-12-29T13:11:36;100334.16;;;9.07;95.29
71964;BME280;59834;52.124;5.422;2022-12-29T13:27:46;100342.69;;;8.96;94.44
71964;BME280;59834;52.124;5.422;2022-12-29T13:42:30;100361.53;;;8.87;94.38
71964;BME280;59834;52.124;5.422;2022-12-29T13:45:35;100357.25;;;8.86;94.82
71964;BME280;59834;52.124;5.422;2022-12-29T13:48:50;100357.16;;;8.87;93.79
71964;BME280;59834;52.124;5.422;2022-12-29T13:51:34;100354.66;;;8.86;93.95
71964;BME280;59834;52.124;5.422;2022-12-29T13:57:40;100357.47;;;8.83;94.33
71964;BME280;59834;52.124;5.422;2022-12-29T14:00:21;100353.91;;;8.84;94.05
71964;BME280;59834;52.124;5.422;2022-12-29T14:09:50;100362.41;;;8.73;94.92
71964;BME280;59834;52.124;5.422;2022-12-29T14:12:51;100368.78;;;8.69;94.91
71964;BME280;59834;52.124;5.422;2022-12-29T14:15:43;100378.19;;;8.57;95.52
71964;BME280;59834;52.124;5.422;2022-12-29T14:18:19;100372.81;;;8.46;95.69
71964;BME280;59834;52.124;5.422;2022-12-29T14:33:24;100382.56;;;8.14;97.56
71964;BME280;59834;52.124;5.422;2022-12-29T14:35:56;100405.66;;;8.06;96.45
71964;BME280;59834;52.124;5.422;2022-12-29T14:38:31;100407.69;;;8.00;96.53
71964;BME280;59834;52.124;5.422;2022-12-29T14:43:59;100408.22;;;7.91;98.49
71964;BME280;59834;52.124;5.422;2022-12-29T14:49:21;100403.75;;;7.79;99.47
71964;BME280;59834;52.124;5.422;2022-12-29T14:51:51;100408.22;;;7.77;99.68
71964;BME280;59834;52.124;5.422;2022-12-29T14:57:19;100400.75;;;7.71;100.00
71964;BME280;59834;52.124;5.422;2022-12-29T14:59:54;100408.06;;;7.64;100.00
71964;BME280;59834;52.124;5.422;2022-12-29T15:02:25;100415.06;;;7.64;100.00
71964;BME280;59834;52.124;5.422;2022-12-29T15:04:58;100407.06;;;7.67;100.00
71964;BME280;59834;52.124;5.422;2022-12-29T15:07:27;100414.03;;;7.66;100.00
71964;BME280;59834;52.124;5.422;2022-12-29T15:10:04;100406.34;;;7.65;100.00
71964;BME280;59834;52.124;5.422;2022-12-29T15:12:39;100409.84;;;7.64;100.00
71964;BME280;59834;52.124;5.422;2022-12-29T15:15:24;100415.81;;;7.66;100.00
71964;BME280;59834;52.124;5.422;2022-12-29T15:17:53;100404.47;;;7.67;100.00
71964;BME280;59834;52.124;5.422;2022-12-29T15:23:10;100414.34;;;7.76;100.00
71964;BME280;59834;52.124;5.422;2022-12-29T15:26:08;100404.88;;;7.75;100.00
71964;BME280;59834;52.124;5.422;2022-12-29T15:28:46;100405.44;;;7.80;100.00
71964;BME280;59834;52.124;5.422;2022-12-29T15:31:21;100413.16;;;7.82;100.00
71964;BME280;59834;52.124;5.422;2022-12-29T15:34:11;100413.00;;;7.85;100.00
71964;BME280;59834;52.124;5.422;2022-12-29T15:36:43;100417.34;;;7.84;100.00
71964;BME280;59834;52.124;5.422;2022-12-29T15:44:43;100421.47;;;7.88;100.00
71964;BME280;59834;52.124;5.422;2022-12-29T15:47:15;100430.84;;;7.91;100.00
71964;BME280;59834;52.124;5.422;2022-12-29T15:49:50;100436.16;;;7.89;100.00
71964;BME280;59834;52.124;5.422;2022-12-29T15:52:31;100438.75;;;7.89;100.00
71964;BME280;59834;52.124;5.422;2022-12-29T15:55:22;100441.28;;;7.91;100.00
71964;BME280;59834;52.124;5.422;2022-12-29T15:58:43;100452.16;;;7.97;99.32
71964;BME280;59834;52.124;5.422;2022-12-29T16:01:34;100445.41;;;7.95;100.00
71964;BME280;59834;52.124;5.422;2022-12-29T16:04:07;100452.44;;;7.93;98.89
71964;BME280;59834;52.124;5.422;2022-12-29T16:06:39;100455.22;;;7.90;99.57